createdAt,value
2019-01-11T00:02:22.532Z,98794.56
2019-01-11T00:04:51.953Z,98807.97
2019-01-11T00:07:21.449Z,98819.59
2019-01-11T00:09:50.960Z,98833.92
2019-01-11T00:12:20.389Z,98833.07
2019-01-11T00:14:49.785Z,98839.19
2019-01-11T00:17:19.351Z,98840.59
2019-01-11T00:19:48.831Z,98847.91
2019-01-11T00:22:18.236Z,98858.52
2019-01-11T00:24:47.670Z,98862.53
2019-01-11T00:27:17.197Z,98864.69
2019-01-11T00:29:46.642Z,98865.14
2019-01-11T00:32:16.095Z,98873.51
2019-01-11T00:34:45.496Z,98884.68
2019-01-11T00:37:15.004Z,98887.06
2019-01-11T00:39:44.515Z,98886.45
2019-01-11T00:42:13.912Z,98891.02
2019-01-11T00:44:43.405Z,98890.86
2019-01-11T00:47:13.081Z,98890.17
2019-01-11T00:49:42.584Z,98890.42
2019-01-11T00:52:11.984Z,98897.77
2019-01-11T00:54:41.509Z,98893.64
2019-01-11T00:57:10.911Z,98886.55
2019-01-11T00:59:40.323Z,98887.39
2019-01-11T01:02:10.068Z,98892.34
2019-01-11T01:04:39.669Z,98888.23
2019-01-11T01:07:09.179Z,98902.73
2019-01-11T01:09:38.623Z,98910.50
2019-01-11T01:12:08.210Z,98913.95
2019-01-11T01:14:37.685Z,98927.86
2019-01-11T01:17:07.360Z,98924.49
2019-01-11T01:19:36.864Z,98926.59
2019-01-11T01:22:06.514Z,98926.91
2019-01-11T01:24:36.086Z,98932.08
2019-01-11T01:27:05.998Z,98932.08
2019-01-11T01:29:35.427Z,98935.93
2019-01-11T01:32:05.066Z,98935.48
2019-01-11T01:34:34.476Z,98940.09
2019-01-11T01:37:04.378Z,98946.14
2019-01-11T01:39:33.909Z,98935.73
2019-01-11T01:42:03.309Z,98943.08
2019-01-11T01:44:32.703Z,98946.48
2019-01-11T01:47:02.402Z,98944.78
2019-01-11T01:49:31.872Z,98946.48
2019-01-11T01:52:01.273Z,98950.91
2019-01-11T01:54:30.730Z,98947.84
2019-01-11T01:57:00.244Z,98953.52
2019-01-11T01:59:29.745Z,98942.70
2019-01-11T02:01:59.326Z,98956.66
2019-01-11T02:04:28.748Z,98946.73
2019-01-11T02:06:58.234Z,98948.03
2019-01-11T02:09:27.896Z,98949.39
2019-01-11T02:11:57.301Z,98963.34
2019-01-11T02:14:26.812Z,98956.83
2019-01-11T02:16:56.300Z,98964.30
2019-01-11T02:19:25.761Z,98960.92
2019-01-11T02:21:55.428Z,98964.59
2019-01-11T02:24:26.077Z,98967.28
2019-01-11T02:26:55.533Z,98968.11
2019-01-11T02:29:24.938Z,98970.80
2019-01-11T02:31:54.455Z,98977.38
2019-01-11T02:34:23.996Z,98977.43
2019-01-11T02:36:53.394Z,98986.00
2019-01-11T02:39:22.786Z,98994.22
2019-01-11T02:41:52.461Z,98998.30
2019-01-11T02:44:21.951Z,98998.45
2019-01-11T02:46:51.360Z,99000.34
2019-01-11T02:49:20.805Z,98997.27
2019-01-11T02:51:50.337Z,98995.47
2019-01-11T02:54:19.748Z,99001.19
2019-01-11T02:56:49.271Z,99008.16
2019-01-11T02:59:18.789Z,99007.77
2019-01-11T03:01:48.199Z,99013.48
2019-01-11T03:04:17.681Z,99022.26
2019-01-11T03:06:47.153Z,99026.17
2019-01-11T03:09:16.639Z,99024.03
2019-01-11T03:11:46.081Z,99024.64
2019-01-11T03:14:15.461Z,99030.80
2019-01-11T03:16:44.960Z,99042.66
2019-01-11T03:19:14.501Z,99047.42
2019-01-11T03:21:43.981Z,99047.42
2019-01-11T03:24:14.660Z,99052.57
2019-01-11T03:26:44.179Z,99047.87
2019-01-11T03:29:13.663Z,99057.20
2019-01-11T03:31:43.064Z,99064.69
2019-01-11T03:34:12.592Z,99060.77
2019-01-11T03:36:47.866Z,99062.17
2019-01-11T03:39:17.294Z,99065.78
2019-01-11T03:42:05.688Z,99075.37
2019-01-11T03:44:35.371Z,99082.88
2019-01-11T03:47:05.039Z,99082.48
2019-01-11T03:49:34.531Z,99088.69
2019-01-11T03:52:04.262Z,99087.44
2019-01-11T03:54:33.752Z,99094.30
2019-01-11T03:57:03.188Z,99100.91
2019-01-11T03:59:32.653Z,99108.72
2019-01-11T04:02:06.357Z,99116.48
2019-01-11T04:04:50.727Z,99118.39
2019-01-11T04:07:20.435Z,99121.66
2019-01-11T04:09:49.893Z,99134.79
2019-01-11T04:12:19.393Z,99137.58
2019-01-11T04:14:48.826Z,99146.55
2019-01-11T04:17:18.461Z,99154.23
2019-01-11T04:19:47.941Z,99156.34
2019-01-11T04:22:30.981Z,99165.05
2019-01-11T04:25:06.607Z,99164.77
2019-01-11T04:27:36.244Z,99164.91
2019-01-11T04:30:12.117Z,99174.59
2019-01-11T04:32:41.560Z,99176.47
2019-01-11T04:35:11.044Z,99167.89
2019-01-11T04:37:41.117Z,99174.56
2019-01-11T04:40:12.009Z,99178.09
2019-01-11T04:42:41.407Z,99177.29
2019-01-11T04:45:11.213Z,99180.42
2019-01-11T04:47:40.767Z,99179.64
2019-01-11T04:50:12.147Z,99185.37
2019-01-11T04:52:41.679Z,99191.02
2019-01-11T04:55:11.569Z,99194.79
2019-01-11T04:57:40.969Z,99203.75
2019-01-11T05:00:14.776Z,99210.20
2019-01-11T05:02:44.265Z,99211.59
2019-01-11T05:05:13.841Z,99225.04
2019-01-11T05:07:43.560Z,99228.12
2019-01-11T05:10:14.340Z,99223.78
2019-01-11T05:12:43.850Z,99221.63
2019-01-11T05:15:13.514Z,99230.77
2019-01-11T05:17:42.977Z,99252.05
2019-01-11T05:20:17.866Z,99251.65
2019-01-11T05:22:50.569Z,99250.34
2019-01-11T05:25:22.954Z,99261.72
2019-01-11T05:27:52.787Z,99270.89
2019-01-11T05:30:24.073Z,99282.70
2019-01-11T05:32:53.947Z,99287.08
2019-01-11T05:35:26.038Z,99290.98
2019-01-11T05:38:04.263Z,99295.39
2019-01-11T05:40:33.692Z,99306.91
2019-01-11T05:43:03.256Z,99309.61
2019-01-11T05:45:32.786Z,99309.67
2019-01-11T05:48:02.199Z,99317.12
2019-01-11T05:50:31.604Z,99312.87
2019-01-11T05:53:01.151Z,99319.75
2019-01-11T05:55:55.652Z,99318.09
2019-01-11T05:58:32.834Z,99303.04
2019-01-11T06:01:02.327Z,99327.79
2019-01-11T06:03:31.846Z,99325.66
2019-01-11T06:06:01.584Z,99335.61
2019-01-11T06:08:31.780Z,99345.63
2019-01-11T06:11:01.173Z,99343.94
2019-01-11T06:13:30.713Z,99348.75
2019-01-11T06:16:00.130Z,99343.97
2019-01-11T06:18:29.688Z,99349.69
2019-01-11T06:20:59.226Z,99361.37
2019-01-11T06:23:28.708Z,99357.92
2019-01-11T06:25:58.099Z,99361.84
2019-01-11T06:28:27.812Z,99360.55
2019-01-11T06:30:57.496Z,99355.77
2019-01-11T06:33:26.976Z,99349.35
2019-01-11T06:35:56.598Z,99341.14
2019-01-11T06:38:26.102Z,99354.55
2019-01-11T06:40:55.656Z,99353.69
2019-01-11T06:43:25.248Z,99358.01
2019-01-11T06:45:54.724Z,99353.64
2019-01-11T06:48:43.191Z,99349.33
2019-01-11T06:51:12.838Z,99349.75
2019-01-11T06:53:42.236Z,99347.62
2019-01-11T06:56:12.120Z,99347.14
2019-01-11T06:58:41.704Z,99355.77
2019-01-11T07:01:11.130Z,99364.39
2019-01-11T07:03:40.788Z,99354.00
2019-01-11T07:06:10.277Z,99381.27
2019-01-11T07:08:39.784Z,99375.17
2019-01-11T07:11:09.223Z,99389.84
2019-01-11T07:13:38.711Z,99371.24
2019-01-11T07:16:08.183Z,99382.80
2019-01-11T07:18:37.616Z,99382.33
2019-01-11T07:21:07.093Z,99388.33
2019-01-11T07:23:36.673Z,99400.38
2019-01-11T07:26:06.243Z,99406.79
2019-01-11T07:28:35.689Z,99401.16
2019-01-11T07:31:09.404Z,99407.15
2019-01-11T07:33:39.246Z,99415.83
2019-01-11T07:36:26.083Z,99419.31
2019-01-11T07:38:55.812Z,99422.30
2019-01-11T07:41:25.684Z,99420.00
2019-01-11T07:43:55.063Z,99410.02
2019-01-11T07:46:24.536Z,99412.64
2019-01-11T07:48:54.052Z,99413.23
2019-01-11T07:51:23.534Z,99418.43
2019-01-11T07:53:52.982Z,99425.67
2019-01-11T07:56:22.502Z,99417.81
2019-01-11T07:58:52.015Z,99408.69
2019-01-11T08:01:21.529Z,99408.66
2019-01-11T08:03:51.191Z,99418.55
2019-01-11T08:06:20.673Z,99408.59
2019-01-11T08:08:50.215Z,99413.77
2019-01-11T08:11:19.791Z,99423.28
2019-01-11T08:13:49.188Z,99412.41
2019-01-11T08:16:18.716Z,99409.80
2019-01-11T08:18:48.124Z,99420.63
2019-01-11T08:21:17.533Z,99409.72
2019-01-11T08:23:47.262Z,99404.48
2019-01-11T08:26:17.015Z,99412.31
2019-01-11T08:28:46.485Z,99398.36
2019-01-11T08:31:16.116Z,99393.16
2019-01-11T08:33:45.629Z,99395.77
2019-01-11T08:36:15.201Z,99412.64
2019-01-11T08:38:44.783Z,99425.93
2019-01-11T08:41:14.228Z,99418.92
2019-01-11T08:43:43.739Z,99426.59
2019-01-11T08:46:13.504Z,99421.74
2019-01-11T08:48:42.917Z,99421.30
2019-01-11T08:51:12.324Z,99425.96
2019-01-11T08:53:41.867Z,99428.87
2019-01-11T08:56:11.259Z,99443.88
2019-01-11T08:58:40.985Z,99430.39
2019-01-11T09:01:10.513Z,99436.86
2019-01-11T09:03:39.895Z,99443.23
2019-01-11T09:06:12.086Z,99426.98
2019-01-11T09:08:50.591Z,99435.14
2019-01-11T09:11:20.947Z,99421.08
2019-01-11T09:13:50.494Z,99427.04
2019-01-11T09:16:20.963Z,99423.35
2019-01-11T09:18:55.441Z,99417.06
2019-01-11T09:21:25.599Z,99430.79
2019-01-11T09:23:55.081Z,99440.16
2019-01-11T09:26:25.582Z,99420.53
2019-01-11T09:28:56.282Z,99432.92
2019-01-11T09:31:25.785Z,99430.32
2019-01-11T09:33:55.200Z,99436.55
2019-01-11T09:36:24.734Z,99434.59
2019-01-11T09:38:54.158Z,99424.86
2019-01-11T09:41:23.700Z,99432.43
2019-01-11T09:43:53.242Z,99433.16
2019-01-11T09:46:22.716Z,99434.91
2019-01-11T09:48:52.308Z,99429.97
2019-01-11T09:51:21.798Z,99430.34
2019-01-11T09:53:51.392Z,99428.71
2019-01-11T09:56:20.891Z,99426.75
2019-01-11T09:58:50.668Z,99427.70
2019-01-11T10:01:20.358Z,99423.16
2019-01-11T10:03:49.891Z,99421.59
2019-01-11T10:06:19.486Z,99423.34
2019-01-11T10:08:48.886Z,99418.39
2019-01-11T10:11:18.275Z,99420.31
2019-01-11T10:13:47.993Z,99418.11
2019-01-11T10:16:17.403Z,99411.79
2019-01-11T10:18:46.910Z,99414.10
2019-01-11T10:21:22.143Z,99417.51
2019-01-11T10:23:48.417Z,99411.16
2019-01-11T10:26:18.014Z,99405.78
2019-01-11T10:28:48.180Z,99399.81
2019-01-11T10:31:17.615Z,99398.41
2019-01-11T10:33:47.020Z,99402.28
2019-01-11T10:36:16.454Z,99390.13
2019-01-11T10:38:45.965Z,99384.54
2019-01-11T10:41:15.476Z,99384.83
2019-01-11T10:43:44.878Z,99390.41
2019-01-11T10:46:49.133Z,99390.67
2019-01-11T10:49:18.347Z,99388.51
2019-01-11T10:51:48.300Z,99375.19
2019-01-11T10:54:28.318Z,99376.42
2019-01-11T10:56:57.775Z,99382.97
2019-01-11T10:59:27.289Z,99385.97
2019-01-11T11:01:56.777Z,99379.59
2019-01-11T11:04:26.186Z,99376.67
2019-01-11T11:06:55.664Z,99380.73
2019-01-11T11:09:25.258Z,99383.17
2019-01-11T11:11:54.701Z,99377.69
2019-01-11T11:14:24.098Z,99375.66
2019-01-11T11:16:53.611Z,99377.92
2019-01-11T11:19:23.084Z,99378.55
2019-01-11T11:21:52.516Z,99384.80
2019-01-11T11:24:21.942Z,99384.08
2019-01-11T11:26:51.430Z,99394.29
2019-01-11T11:29:20.925Z,99390.03
2019-01-11T11:31:50.418Z,99393.77
2019-01-11T11:34:28.987Z,99400.14
2019-01-11T11:37:00.172Z,99405.87
2019-01-11T11:39:29.560Z,99408.34
2019-01-11T11:41:58.988Z,99405.95
2019-01-11T11:44:28.578Z,99401.02
2019-01-11T11:46:58.024Z,99412.03
2019-01-11T11:49:27.416Z,99411.98
2019-01-11T11:51:56.961Z,99418.22
2019-01-11T11:54:26.465Z,99412.54
2019-01-11T11:56:55.934Z,99412.61
2019-01-11T11:59:25.409Z,99412.16
2019-01-11T12:01:54.859Z,99415.42
2019-01-11T12:04:24.364Z,99415.34
2019-01-11T12:06:53.850Z,99419.52
2019-01-11T12:09:23.248Z,99424.23
2019-01-11T12:11:52.694Z,99420.06
2019-01-11T12:14:22.405Z,99421.36
2019-01-11T12:16:51.854Z,99425.69
2019-01-11T12:19:21.329Z,99428.30
2019-01-11T12:21:50.943Z,99435.88
2019-01-11T12:24:20.304Z,99425.11
2019-01-11T12:26:49.881Z,99436.58
2019-01-11T12:29:19.585Z,99436.02
2019-01-11T12:31:49.034Z,99431.75
2019-01-11T12:34:18.440Z,99436.87
2019-01-11T12:36:48.093Z,99429.73
2019-01-11T12:39:17.582Z,99438.48
2019-01-11T12:41:47.005Z,99440.53
2019-01-11T12:44:16.437Z,99444.34
2019-01-11T12:46:45.884Z,99446.39
2019-01-11T12:49:15.386Z,99449.59
2019-01-11T12:51:44.910Z,99450.84
2019-01-11T12:54:14.420Z,99454.33
2019-01-11T12:56:43.947Z,99460.87
2019-01-11T12:59:13.377Z,99459.81
2019-01-11T13:01:42.877Z,99455.73
2019-01-11T13:04:12.489Z,99461.59
2019-01-11T13:06:42.123Z,99468.94
2019-01-11T13:09:11.649Z,99468.31
2019-01-11T13:11:41.230Z,99484.14
2019-01-11T13:14:10.776Z,99467.79
2019-01-11T13:16:52.220Z,99466.94
2019-01-11T13:19:21.680Z,99471.36
2019-01-11T13:21:51.146Z,99485.45
2019-01-11T13:24:20.658Z,99477.14
2019-01-11T13:26:50.232Z,99484.19
2019-01-11T13:29:19.717Z,99486.42
2019-01-11T13:31:49.200Z,99502.97
2019-01-11T13:34:18.823Z,99506.34
2019-01-11T13:36:53.774Z,99500.12
2019-01-11T13:39:19.519Z,99514.64
2019-01-11T13:41:49.111Z,99526.00
2019-01-11T13:44:18.540Z,99527.31
2019-01-11T13:46:48.014Z,99534.70
2019-01-11T13:49:17.689Z,99547.86
2019-01-11T13:51:47.150Z,99548.97
2019-01-11T13:54:16.589Z,99541.82
2019-01-11T13:56:46.101Z,99540.92
2019-01-11T13:59:15.646Z,99545.34
2019-01-11T14:01:45.152Z,99541.06
2019-01-11T14:04:14.897Z,99543.32
2019-01-11T14:06:44.460Z,99547.28
2019-01-11T14:09:13.984Z,99549.13
2019-01-11T14:11:43.504Z,99555.41
2019-01-11T14:14:13.010Z,99568.20
2019-01-11T14:16:42.480Z,99567.56
2019-01-11T14:19:11.932Z,99567.74
2019-01-11T14:21:41.450Z,99575.27
2019-01-11T14:24:11.047Z,99568.82
2019-01-11T14:26:40.559Z,99571.06
2019-01-11T14:29:09.997Z,99575.84
2019-01-11T14:31:39.497Z,99576.83
2019-01-11T14:34:09.244Z,99577.73
2019-01-11T14:36:38.704Z,99567.45
2019-01-11T14:39:09.496Z,99576.75
2019-01-11T14:41:39.328Z,99580.88
2019-01-11T14:44:08.836Z,99591.97
2019-01-11T14:46:38.313Z,99597.37
2019-01-11T14:49:07.794Z,99594.52
2019-01-11T14:51:37.266Z,99602.01
2019-01-11T14:54:06.740Z,99594.70
2019-01-11T14:56:36.268Z,99602.16
2019-01-11T14:59:05.824Z,99605.40
2019-01-11T15:01:35.307Z,99606.41
2019-01-11T15:04:04.988Z,99606.55
2019-01-11T15:06:35.873Z,99610.08
2019-01-11T15:09:08.806Z,99610.56
2019-01-11T15:11:38.277Z,99608.51
2019-01-11T15:14:07.825Z,99613.00
2019-01-11T15:16:37.370Z,99613.92
2019-01-11T15:19:06.889Z,99613.14
2019-01-11T15:21:36.371Z,99625.28
2019-01-11T15:24:06.150Z,99626.61
2019-01-11T15:26:35.754Z,99634.50
2019-01-11T15:29:05.284Z,99628.52
2019-01-11T15:31:34.822Z,99625.13
2019-01-11T15:34:04.316Z,99626.02
2019-01-11T15:36:33.799Z,99624.36
2019-01-11T15:39:03.510Z,99632.66
2019-01-11T15:41:33.010Z,99633.61
2019-01-11T15:44:02.537Z,99636.24
2019-01-11T15:46:32.060Z,99645.04
2019-01-11T15:49:01.502Z,99651.20
2019-01-11T15:51:32.087Z,99652.97
2019-01-11T15:54:02.981Z,99646.94
2019-01-11T15:56:32.462Z,99659.52
2019-01-11T15:59:01.884Z,99653.39
2019-01-11T16:01:31.576Z,99655.48
2019-01-11T16:04:06.640Z,99659.69
2019-01-11T16:06:37.616Z,99658.86
2019-01-11T16:09:58.261Z,99664.48
2019-01-11T16:12:36.171Z,99661.82
2019-01-11T16:15:15.460Z,99667.47
2019-01-11T16:17:45.001Z,99669.16
2019-01-11T16:20:14.500Z,99667.86
2019-01-11T16:22:43.978Z,99672.68
2019-01-11T16:25:14.190Z,99677.48
2019-01-11T16:27:43.705Z,99677.09
2019-01-11T16:30:13.283Z,99682.30
2019-01-11T16:32:42.787Z,99681.92
2019-01-11T16:35:12.405Z,99687.19
2019-01-11T16:37:41.850Z,99693.34
2019-01-11T16:40:11.514Z,99688.63
2019-01-11T16:42:40.965Z,99680.02
2019-01-11T16:45:12.071Z,99685.67
2019-01-11T16:47:41.571Z,99692.23
2019-01-11T16:50:13.407Z,99692.31
2019-01-11T16:52:46.423Z,99687.70
2019-01-11T16:55:14.184Z,99692.60
2019-01-11T16:57:43.651Z,99698.35
2019-01-11T17:00:16.440Z,99697.07
2019-01-11T17:02:45.938Z,99694.98
2019-01-11T17:05:15.703Z,99687.27
2019-01-11T17:07:45.157Z,99697.29
2019-01-11T17:10:14.882Z,99702.96
2019-01-11T17:12:44.321Z,99693.44
2019-01-11T17:15:16.048Z,99706.86
2019-01-11T17:17:45.661Z,99713.41
2019-01-11T17:20:17.350Z,99701.33
2019-01-11T17:22:52.742Z,99710.02
2019-01-11T17:25:18.089Z,99709.62
2019-01-11T17:27:47.557Z,99713.96
2019-01-11T17:30:18.669Z,99720.05
2019-01-11T17:32:48.382Z,99728.75
2019-01-11T17:35:17.953Z,99733.53
2019-01-11T17:37:47.407Z,99738.36
2019-01-11T17:40:17.305Z,99742.69
2019-01-11T17:42:46.788Z,99745.22
2019-01-11T17:45:16.371Z,99748.19
2019-01-11T17:47:46.004Z,99749.07
2019-01-11T17:50:17.428Z,99750.80
2019-01-11T17:52:47.119Z,99754.78
2019-01-11T17:55:16.953Z,99760.42
2019-01-11T17:57:46.494Z,99753.53
2019-01-11T18:00:18.119Z,99754.40
2019-01-11T18:02:47.705Z,99763.50
2019-01-11T18:05:17.700Z,99760.92
2019-01-11T18:07:47.154Z,99758.76
2019-01-11T18:10:16.725Z,99765.68
2019-01-11T18:12:46.378Z,99753.14
2019-01-11T18:15:19.236Z,99761.84
2019-01-11T18:17:49.128Z,99773.15
2019-01-11T18:20:21.279Z,99778.80
2019-01-11T18:22:50.733Z,99777.08
2019-01-11T18:25:20.205Z,99780.56
2019-01-11T18:27:49.703Z,99787.08
2019-01-11T18:30:20.125Z,99787.12
2019-01-11T18:32:52.161Z,99785.41
2019-01-11T18:35:21.610Z,99780.24
2019-01-11T18:37:51.070Z,99789.36
2019-01-11T18:40:23.233Z,99796.30
2019-01-11T18:42:52.704Z,99799.72
2019-01-11T18:45:28.853Z,99799.77
2019-01-11T18:47:57.851Z,99800.64
2019-01-11T18:50:27.464Z,99798.06
2019-01-11T18:52:57.280Z,99803.24
2019-01-11T18:55:26.769Z,99798.96
2019-01-11T18:57:56.265Z,99800.26
2019-01-11T19:00:25.933Z,99798.50
2019-01-11T19:02:55.469Z,99802.45
2019-01-11T19:05:25.022Z,99799.88
2019-01-11T19:07:54.525Z,99803.31
2019-01-11T19:10:25.173Z,99805.48
2019-01-11T19:12:54.666Z,99797.70
2019-01-11T19:15:26.922Z,99799.02
2019-01-11T19:17:56.564Z,99800.80
2019-01-11T19:20:28.250Z,99801.25
2019-01-11T19:22:58.029Z,99801.75
2019-01-11T19:25:27.614Z,99804.38
2019-01-11T19:27:57.531Z,99797.46
2019-01-11T19:30:28.632Z,99788.79
2019-01-11T19:32:58.215Z,99783.59
2019-01-11T19:35:27.707Z,99780.09
2019-01-11T19:37:57.127Z,99781.42
2019-01-11T19:40:26.680Z,99790.00
2019-01-11T19:42:56.232Z,99783.06
2019-01-11T19:45:25.632Z,99778.33
2019-01-11T19:47:55.307Z,99774.91
2019-01-11T19:50:25.547Z,99781.45
2019-01-11T19:52:55.104Z,99774.54
2019-01-11T19:55:24.564Z,99787.91
2019-01-11T19:57:54.060Z,99782.30
2019-01-11T20:00:28.455Z,99783.59
2019-01-11T20:02:57.942Z,99772.77
2019-01-11T20:05:27.770Z,99769.77
2019-01-11T20:07:57.291Z,99759.77
2019-01-11T20:10:32.162Z,99762.38
2019-01-11T20:13:01.657Z,99757.16
2019-01-11T20:15:31.416Z,99770.51
2019-01-11T20:18:01.462Z,99760.59
2019-01-11T20:20:30.968Z,99770.51
2019-01-11T20:23:02.445Z,99758.84
2019-01-11T20:25:31.749Z,99775.21
2019-01-11T20:28:01.283Z,99784.73
2019-01-11T20:30:31.033Z,99782.13
2019-01-11T20:33:00.497Z,99781.27
2019-01-11T20:35:30.001Z,99783.84
2019-01-11T20:37:59.665Z,99778.23
2019-01-11T20:40:29.127Z,99779.11
2019-01-11T20:42:58.626Z,99776.07
2019-01-11T20:45:28.135Z,99772.21
2019-01-11T20:47:57.705Z,99771.33
2019-01-11T20:50:27.693Z,99771.83
2019-01-11T20:52:57.717Z,99778.75
2019-01-11T20:55:27.286Z,99784.02
2019-01-11T20:57:56.973Z,99787.87
2019-01-11T21:00:31.778Z,99794.44
2019-01-11T21:03:01.669Z,99795.72
2019-01-11T21:05:31.104Z,99789.67
2019-01-11T21:08:00.720Z,99788.80
2019-01-11T21:10:30.232Z,99773.64
2019-01-11T21:12:59.727Z,99776.20
2019-01-11T21:15:29.239Z,99772.70
2019-01-11T21:17:58.720Z,99764.03
2019-01-11T21:20:28.424Z,99758.38
2019-01-11T21:22:57.970Z,99767.86
2019-01-11T21:25:27.378Z,99777.80
2019-01-11T21:27:56.940Z,99786.45
2019-01-11T21:30:28.630Z,99776.03
2019-01-11T21:32:59.435Z,99783.37
2019-01-11T21:35:28.958Z,99762.58
2019-01-11T21:37:58.505Z,99757.84
2019-01-11T21:40:27.960Z,99756.52
2019-01-11T21:42:57.574Z,99768.61
2019-01-11T21:45:27.137Z,99768.69
2019-01-11T21:47:56.591Z,99769.53
2019-01-11T21:50:28.968Z,99758.67
2019-01-11T21:52:58.884Z,99758.25
2019-01-11T21:55:28.275Z,99759.13
2019-01-11T21:57:57.731Z,99772.52
2019-01-11T22:00:42.204Z,99771.63
2019-01-11T22:03:19.566Z,99767.31
2019-01-11T22:05:49.011Z,99756.92
2019-01-11T22:08:18.567Z,99758.20
2019-01-11T22:10:48.067Z,99755.62
2019-01-11T22:13:17.540Z,99753.43
2019-01-11T22:15:47.012Z,99738.63
2019-01-11T22:18:16.510Z,99742.52
2019-01-11T22:20:46.067Z,99739.05
2019-01-11T22:23:15.551Z,99744.25
2019-01-11T22:25:45.180Z,99745.97
2019-01-11T22:28:14.694Z,99747.27
2019-01-11T22:30:44.116Z,99748.11
2019-01-11T22:33:13.585Z,99755.48
2019-01-11T22:35:43.527Z,99756.36
2019-01-11T22:38:12.999Z,99759.83
2019-01-11T22:40:42.427Z,99750.73
2019-01-11T22:43:11.913Z,99759.43
2019-01-11T22:45:41.423Z,99765.51
2019-01-11T22:48:10.900Z,99756.39
2019-01-11T22:50:40.358Z,99765.92
2019-01-11T22:53:09.866Z,99761.15
2019-01-11T22:55:39.306Z,99755.09
2019-01-11T22:58:09.056Z,99751.17
2019-01-11T23:01:06.907Z,99751.17
2019-01-11T23:03:43.187Z,99749.84
2019-01-11T23:06:46.545Z,99759.07
2019-01-11T23:09:17.772Z,99762.11
2019-01-11T23:12:14.588Z,99761.67
2019-01-11T23:14:44.182Z,99751.61
2019-01-11T23:17:46.812Z,99753.31
2019-01-11T23:20:16.602Z,99755.50
2019-01-11T23:22:46.097Z,99757.29
2019-01-11T23:25:15.549Z,99751.69
2019-01-11T23:27:44.978Z,99748.13
2019-01-11T23:30:17.045Z,99743.80
2019-01-11T23:32:46.584Z,99737.73
2019-01-11T23:35:16.217Z,99735.16
2019-01-11T23:37:45.701Z,99731.23
2019-01-11T23:40:17.792Z,99729.91
2019-01-11T23:42:47.261Z,99740.72
2019-01-11T23:45:16.706Z,99737.71
2019-01-11T23:47:46.209Z,99742.91
2019-01-11T23:50:17.616Z,99740.77
2019-01-11T23:52:47.056Z,99739.00
2019-01-11T23:55:16.550Z,99732.10
2019-01-11T23:57:46.090Z,99738.08
